sensor_id;sensor_type;location;lat;lon;timestamp;temperature;humidity
19200;DHT22;9732;52.498;5.408;2024-01-07T00:02:07;2.30;99.90
19200;DHT22;9732;52.498;5.408;2024-01-07T00:04:35;2.40;99.90
19200;DHT22;9732;52.498;5.408;2024-01-07T00:07:03;2.40;99.90
19200;DHT22;9732;52.498;5.408;2024-01-07T00:09:30;2.40;99.90
19200;DHT22;9732;52.498;5.408;2024-01-07T00:11:57;2.40;99.90
19200;DHT22;9732;52.498;5.408;2024-01-07T00:14:23;2.30;99.90
19200;DHT22;9732;52.498;5.408;2024-01-07T00:16:50;2.30;99.90
19200;DHT22;9732;52.498;5.408;2024-01-07T00:19:17;2.30;99.90
19200;DHT22;9732;52.498;5.408;2024-01-07T00:21:45;2.30;99.90
19200;DHT22;9732;52.498;5.408;2024-01-07T00:24:12;2.40;99.90
19200;DHT22;9732;52.498;5.408;2024-01-07T00:26:38;2.30;99.90
19200;DHT22;9732;52.498;5.408;2024-01-07T00:29:05;2.30;99.90
19200;DHT22;9732;52.498;5.408;2024-01-07T00:31:32;2.30;99.90
19200;DHT22;9732;52.498;5.408;2024-01-07T00:33:58;2.20;99.90
19200;DHT22;9732;52.498;5.408;2024-01-07T00:36:25;2.20;99.90
19200;DHT22;9732;52.498;5.408;2024-01-07T00:38:53;2.10;99.90
19200;DHT22;9732;52.498;5.408;2024-01-07T00:41:20;2.10;99.90
19200;DHT22;9732;52.498;5.408;2024-01-07T00:43:46;2.10;99.90
19200;DHT22;9732;52.498;5.408;2024-01-07T00:46:13;2.10;99.90
19200;DHT22;9732;52.498;5.408;2024-01-07T00:48:40;2.20;99.90
19200;DHT22;9732;52.498;5.408;2024-01-07T00:51:07;2.20;99.90
19200;DHT22;9732;52.498;5.408;2024-01-07T00:53:34;2.10;99.90
19200;DHT22;9732;52.498;5.408;2024-01-07T00:56:02;2.10;99.90
19200;DHT22;9732;52.498;5.408;2024-01-07T00:58:29;2.10;99.90
19200;DHT22;9732;52.498;5.408;2024-01-07T01:00:56;2.10;99.90
19200;DHT22;9732;52.498;5.408;2024-01-07T01:03:23;2.10;99.90
19200;DHT22;9732;52.498;5.408;2024-01-07T01:05:49;2.10;99.90
19200;DHT22;9732;52.498;5.408;2024-01-07T01:08:16;2.20;99.90
19200;DHT22;9732;52.498;5.408;2024-01-07T01:10:43;2.10;99.90
19200;DHT22;9732;52.498;5.408;2024-01-07T01:13:11;2.10;99.90
19200;DHT22;9732;52.498;5.408;2024-01-07T01:15:37;2.10;99.90
19200;DHT22;9732;52.498;5.408;2024-01-07T01:18:05;2.10;99.90
19200;DHT22;9732;52.498;5.408;2024-01-07T01:20:31;2.10;99.90
19200;DHT22;9732;52.498;5.408;2024-01-07T01:22:58;2.10;99.90
19200;DHT22;9732;52.498;5.408;2024-01-07T01:25:25;2.10;99.90
19200;DHT22;9732;52.498;5.408;2024-01-07T01:27:52;2.10;99.90
19200;DHT22;9732;52.498;5.408;2024-01-07T01:30:20;2.10;99.90
19200;DHT22;9732;52.498;5.408;2024-01-07T01:32:47;2.10;99.90
19200;DHT22;9732;52.498;5.408;2024-01-07T01:35:14;2.10;99.90
19200;DHT22;9732;52.498;5.408;2024-01-07T01:37:41;2.10;99.90
19200;DHT22;9732;52.498;5.408;2024-01-07T01:40:08;2.10;99.90
19200;DHT22;9732;52.498;5.408;2024-01-07T01:42:35;2.10;99.90
19200;DHT22;9732;52.498;5.408;2024-01-07T01:45:02;2.10;99.90
19200;DHT22;9732;52.498;5.408;2024-01-07T01:47:31;2.10;99.90
19200;DHT22;9732;52.498;5.408;2024-01-07T01:49:58;2.10;99.90
19200;DHT22;9732;52.498;5.408;2024-01-07T01:52:25;2.10;99.90
19200;DHT22;9732;52.498;5.408;2024-01-07T01:54:52;2.20;99.90
19200;DHT22;9732;52.498;5.408;2024-01-07T01:57:22;2.10;99.90
19200;DHT22;9732;52.498;5.408;2024-01-07T01:59:51;2.10;99.90
19200;DHT22;9732;52.498;5.408;2024-01-07T02:02:18;2.10;99.90
19200;DHT22;9732;52.498;5.408;2024-01-07T02:04:47;2.10;99.90
19200;DHT22;9732;52.498;5.408;2024-01-07T02:07:13;2.10;99.90
19200;DHT22;9732;52.498;5.408;2024-01-07T02:09:40;2.10;99.90
19200;DHT22;9732;52.498;5.408;2024-01-07T02:12:07;2.00;99.90
19200;DHT22;9732;52.498;5.408;2024-01-07T02:14:37;2.00;99.90
19200;DHT22;9732;52.498;5.408;2024-01-07T02:17:04;2.00;99.90
19200;DHT22;9732;52.498;5.408;2024-01-07T02:19:30;2.10;99.90
19200;DHT22;9732;52.498;5.408;2024-01-07T02:21:58;2.10;99.90
19200;DHT22;9732;52.498;5.408;2024-01-07T02:24:27;2.10;99.90
19200;DHT22;9732;52.498;5.408;2024-01-07T02:26:53;2.10;99.90
19200;DHT22;9732;52.498;5.408;2024-01-07T02:29:20;2.10;99.90
19200;DHT22;9732;52.498;5.408;2024-01-07T02:31:47;2.00;99.90
19200;DHT22;9732;52.498;5.408;2024-01-07T02:34:13;2.00;99.90
19200;DHT22;9732;52.498;5.408;2024-01-07T02:36:40;2.00;99.90
19200;DHT22;9732;52.498;5.408;2024-01-07T02:39:07;2.00;99.90
19200;DHT22;9732;52.498;5.408;2024-01-07T02:41:35;2.10;99.90
19200;DHT22;9732;52.498;5.408;2024-01-07T02:44:02;2.10;99.90
19200;DHT22;9732;52.498;5.408;2024-01-07T02:46:28;2.10;99.90
19200;DHT22;9732;52.498;5.408;2024-01-07T02:48:55;2.10;99.90
19200;DHT22;9732;52.498;5.408;2024-01-07T02:51:22;2.10;99.90
19200;DHT22;9732;52.498;5.408;2024-01-07T02:53:48;2.10;99.90
19200;DHT22;9732;52.498;5.408;2024-01-07T02:56:15;2.00;99.90
19200;DHT22;9732;52.498;5.408;2024-01-07T02:58:43;2.00;99.90
19200;DHT22;9732;52.498;5.408;2024-01-07T03:01:10;2.10;99.90
19200;DHT22;9732;52.498;5.408;2024-01-07T03:03:37;1.90;99.90
19200;DHT22;9732;52.498;5.408;2024-01-07T03:06:04;2.00;99.90
19200;DHT22;9732;52.498;5.408;2024-01-07T03:08:31;1.90;99.90
19200;DHT22;9732;52.498;5.408;2024-01-07T03:10:58;1.90;99.90
19200;DHT22;9732;52.498;5.408;2024-01-07T03:13:25;1.80;99.90
19200;DHT22;9732;52.498;5.408;2024-01-07T03:15:53;1.80;99.90
19200;DHT22;9732;52.498;5.408;2024-01-07T03:18:19;1.80;99.90
19200;DHT22;9732;52.498;5.408;2024-01-07T03:20:46;1.90;99.90
19200;DHT22;9732;52.498;5.408;2024-01-07T03:23:13;1.80;99.90
19200;DHT22;9732;52.498;5.408;2024-01-07T03:25:39;1.80;99.90
19200;DHT22;9732;52.498;5.408;2024-01-07T03:28:06;1.80;99.90
19200;DHT22;9732;52.498;5.408;2024-01-07T03:30:33;1.90;99.90
19200;DHT22;9732;52.498;5.408;2024-01-07T03:33:01;1.90;99.90
19200;DHT22;9732;52.498;5.408;2024-01-07T03:35:28;1.90;99.90
19200;DHT22;9732;52.498;5.408;2024-01-07T03:37:55;1.90;99.90
19200;DHT22;9732;52.498;5.408;2024-01-07T03:40:22;1.90;99.90
19200;DHT22;9732;52.498;5.408;2024-01-07T03:42:48;1.90;99.90
19200;DHT22;9732;52.498;5.408;2024-01-07T03:45:15;1.90;99.90
19200;DHT22;9732;52.498;5.408;2024-01-07T03:47:42;1.80;99.90
19200;DHT22;9732;52.498;5.408;2024-01-07T03:50:10;1.80;99.90
19200;DHT22;9732;52.498;5.408;2024-01-07T03:52:37;1.80;99.90
19200;DHT22;9732;52.498;5.408;2024-01-07T03:55:04;1.80;99.90
19200;DHT22;9732;52.498;5.408;2024-01-07T03:57:31;1.80;99.90
19200;DHT22;9732;52.498;5.408;2024-01-07T03:59:58;1.80;99.90
19200;DHT22;9732;52.498;5.408;2024-01-07T04:02:25;1.90;99.90
19200;DHT22;9732;52.498;5.408;2024-01-07T04:04:52;1.90;99.90
19200;DHT22;9732;52.498;5.408;2024-01-07T04:07:20;1.90;99.90
19200;DHT22;9732;52.498;5.408;2024-01-07T04:09:47;1.90;99.90
19200;DHT22;9732;52.498;5.408;2024-01-07T04:12:13;1.90;99.90
19200;DHT22;9732;52.498;5.408;2024-01-07T04:14:40;1.90;99.90
19200;DHT22;9732;52.498;5.408;2024-01-07T04:17:07;1.90;99.90
19200;DHT22;9732;52.498;5.408;2024-01-07T04:19:36;2.00;99.90
19200;DHT22;9732;52.498;5.408;2024-01-07T04:22:03;1.90;99.90
19200;DHT22;9732;52.498;5.408;2024-01-07T04:24:31;1.90;99.90
19200;DHT22;9732;52.498;5.408;2024-01-07T04:26:58;2.00;99.90
19200;DHT22;9732;52.498;5.408;2024-01-07T04:29:25;2.00;99.90
19200;DHT22;9732;52.498;5.408;2024-01-07T04:31:51;2.00;99.90
19200;DHT22;9732;52.498;5.408;2024-01-07T04:34:18;1.90;99.90
19200;DHT22;9732;52.498;5.408;2024-01-07T04:36:45;2.00;99.90
19200;DHT22;9732;52.498;5.408;2024-01-07T04:39:13;2.00;99.90
19200;DHT22;9732;52.498;5.408;2024-01-07T04:41:41;2.00;99.90
19200;DHT22;9732;52.498;5.408;2024-01-07T04:44:08;1.90;99.90
19200;DHT22;9732;52.498;5.408;2024-01-07T04:46:34;2.00;99.90
19200;DHT22;9732;52.498;5.408;2024-01-07T04:49:01;1.90;99.90
19200;DHT22;9732;52.498;5.408;2024-01-07T04:51:28;2.10;99.90
19200;DHT22;9732;52.498;5.408;2024-01-07T04:53:55;2.00;99.90
19200;DHT22;9732;52.498;5.408;2024-01-07T04:56:21;2.00;99.90
19200;DHT22;9732;52.498;5.408;2024-01-07T04:58:50;2.00;99.90
19200;DHT22;9732;52.498;5.408;2024-01-07T05:01:16;2.00;99.90
19200;DHT22;9732;52.498;5.408;2024-01-07T05:03:43;2.00;99.90
19200;DHT22;9732;52.498;5.408;2024-01-07T05:06:10;2.00;99.90
19200;DHT22;9732;52.498;5.408;2024-01-07T05:08:37;1.90;99.90
19200;DHT22;9732;52.498;5.408;2024-01-07T05:11:04;1.90;99.90
19200;DHT22;9732;52.498;5.408;2024-01-07T05:13:31;1.80;99.90
19200;DHT22;9732;52.498;5.408;2024-01-07T05:15:59;1.90;99.90
19200;DHT22;9732;52.498;5.408;2024-01-07T05:18:26;1.90;99.90
19200;DHT22;9732;52.498;5.408;2024-01-07T05:20:52;1.90;99.90
19200;DHT22;9732;52.498;5.408;2024-01-07T05:23:20;1.90;99.90
19200;DHT22;9732;52.498;5.408;2024-01-07T05:25:46;1.90;99.90
19200;DHT22;9732;52.498;5.408;2024-01-07T05:28:13;1.90;99.90
19200;DHT22;9732;52.498;5.408;2024-01-07T05:30:44;1.90;99.90
19200;DHT22;9732;52.498;5.408;2024-01-07T05:33:12;1.90;99.90
19200;DHT22;9732;52.498;5.408;2024-01-07T05:35:39;1.90;99.90
19200;DHT22;9732;52.498;5.408;2024-01-07T05:38:06;1.90;99.90
19200;DHT22;9732;52.498;5.408;2024-01-07T05:40:33;1.80;99.90
19200;DHT22;9732;52.498;5.408;2024-01-07T05:42:59;1.80;99.90
19200;DHT22;9732;52.498;5.408;2024-01-07T05:45:26;1.90;99.90
19200;DHT22;9732;52.498;5.408;2024-01-07T05:47:53;1.80;99.90
19200;DHT22;9732;52.498;5.408;2024-01-07T05:50:21;1.80;99.90
19200;DHT22;9732;52.498;5.408;2024-01-07T05:52:47;1.80;99.90
19200;DHT22;9732;52.498;5.408;2024-01-07T05:55:14;1.80;99.90
19200;DHT22;9732;52.498;5.408;2024-01-07T05:57:43;1.80;99.90
19200;DHT22;9732;52.498;5.408;2024-01-07T06:00:11;1.80;99.90
19200;DHT22;9732;52.498;5.408;2024-01-07T06:02:38;1.80;99.90
19200;DHT22;9732;52.498;5.408;2024-01-07T06:05:06;1.80;99.90
19200;DHT22;9732;52.498;5.408;2024-01-07T06:07:34;1.70;99.90
19200;DHT22;9732;52.498;5.408;2024-01-07T06:10:00;1.80;99.90
19200;DHT22;9732;52.498;5.408;2024-01-07T06:12:27;1.80;99.90
19200;DHT22;9732;52.498;5.408;2024-01-07T06:14:54;1.80;99.90
19200;DHT22;9732;52.498;5.408;2024-01-07T06:17:21;1.80;99.90
19200;DHT22;9732;52.498;5.408;2024-01-07T06:19:48;1.80;99.90
19200;DHT22;9732;52.498;5.408;2024-01-07T06:22:14;1.70;99.90
19200;DHT22;9732;52.498;5.408;2024-01-07T06:24:43;1.70;99.90
19200;DHT22;9732;52.498;5.408;2024-01-07T06:27:09;1.70;99.90
19200;DHT22;9732;52.498;5.408;2024-01-07T06:29:36;1.70;99.90
19200;DHT22;9732;52.498;5.408;2024-01-07T06:32:03;1.70;99.90
19200;DHT22;9732;52.498;5.408;2024-01-07T06:34:30;1.70;99.90
19200;DHT22;9732;52.498;5.408;2024-01-07T06:36:58;1.70;99.90
19200;DHT22;9732;52.498;5.408;2024-01-07T06:39:25;1.70;99.90
19200;DHT22;9732;52.498;5.408;2024-01-07T06:41:53;1.70;99.90
19200;DHT22;9732;52.498;5.408;2024-01-07T06:44:20;1.60;99.90
19200;DHT22;9732;52.498;5.408;2024-01-07T06:46:47;1.60;99.90
19200;DHT22;9732;52.498;5.408;2024-01-07T06:49:14;1.60;99.90
19200;DHT22;9732;52.498;5.408;2024-01-07T06:51:40;1.60;99.90
19200;DHT22;9732;52.498;5.408;2024-01-07T06:54:07;1.60;99.90
19200;DHT22;9732;52.498;5.408;2024-01-07T06:56:34;1.60;99.90
19200;DHT22;9732;52.498;5.408;2024-01-07T06:59:02;1.70;99.90
19200;DHT22;9732;52.498;5.408;2024-01-07T07:01:29;1.70;99.90
19200;DHT22;9732;52.498;5.408;2024-01-07T07:03:55;1.60;99.90
19200;DHT22;9732;52.498;5.408;2024-01-07T07:06:22;1.70;99.90
19200;DHT22;9732;52.498;5.408;2024-01-07T07:08:49;1.70;99.90
19200;DHT22;9732;52.498;5.408;2024-01-07T07:11:16;1.70;99.90
19200;DHT22;9732;52.498;5.408;2024-01-07T07:13:43;1.70;99.90
19200;DHT22;9732;52.498;5.408;2024-01-07T07:16:11;1.70;99.90
19200;DHT22;9732;52.498;5.408;2024-01-07T07:18:38;1.70;99.90
19200;DHT22;9732;52.498;5.408;2024-01-07T07:21:05;1.70;99.90
19200;DHT22;9732;52.498;5.408;2024-01-07T07:23:31;1.60;99.90
19200;DHT22;9732;52.498;5.408;2024-01-07T07:25:58;1.60;99.90
19200;DHT22;9732;52.498;5.408;2024-01-07T07:28:25;1.60;99.90
19200;DHT22;9732;52.498;5.408;2024-01-07T07:30:52;1.60;99.90
19200;DHT22;9732;52.498;5.408;2024-01-07T07:33:20;1.60;99.90
19200;DHT22;9732;52.498;5.408;2024-01-07T07:35:47;1.60;99.90
19200;DHT22;9732;52.498;5.408;2024-01-07T07:38:13;1.60;99.90
19200;DHT22;9732;52.498;5.408;2024-01-07T07:40:40;1.60;99.90
19200;DHT22;9732;52.498;5.408;2024-01-07T07:43:08;1.60;99.90
19200;DHT22;9732;52.498;5.408;2024-01-07T07:45:35;1.60;99.90
19200;DHT22;9732;52.498;5.408;2024-01-07T07:48:02;1.60;99.90
19200;DHT22;9732;52.498;5.408;2024-01-07T07:50:30;1.60;99.90
19200;DHT22;9732;52.498;5.408;2024-01-07T07:52:56;1.60;99.90
19200;DHT22;9732;52.498;5.408;2024-01-07T07:55:23;1.60;99.90
19200;DHT22;9732;52.498;5.408;2024-01-07T07:57:50;1.70;99.90
19200;DHT22;9732;52.498;5.408;2024-01-07T08:00:17;1.60;99.90
19200;DHT22;9732;52.498;5.408;2024-01-07T08:02:44;1.60;99.90
19200;DHT22;9732;52.498;5.408;2024-01-07T08:05:11;1.60;99.90
19200;DHT22;9732;52.498;5.408;2024-01-07T08:07:39;1.70;99.90
19200;DHT22;9732;52.498;5.408;2024-01-07T08:10:07;1.60;99.90
19200;DHT22;9732;52.498;5.408;2024-01-07T08:12:34;1.70;99.90
19200;DHT22;9732;52.498;5.408;2024-01-07T08:15:01;1.60;99.90
19200;DHT22;9732;52.498;5.408;2024-01-07T08:17:28;1.70;99.90
19200;DHT22;9732;52.498;5.408;2024-01-07T08:19:55;1.70;99.90
19200;DHT22;9732;52.498;5.408;2024-01-07T08:22:22;1.70;99.90
19200;DHT22;9732;52.498;5.408;2024-01-07T08:24:50;1.60;99.90
19200;DHT22;9732;52.498;5.408;2024-01-07T08:27:17;1.60;99.90
19200;DHT22;9732;52.498;5.408;2024-01-07T08:29:43;1.60;99.90
19200;DHT22;9732;52.498;5.408;2024-01-07T08:32:10;1.60;99.90
19200;DHT22;9732;52.498;5.408;2024-01-07T08:34:37;1.60;99.90
19200;DHT22;9732;52.498;5.408;2024-01-07T08:37:04;1.60;99.90
19200;DHT22;9732;52.498;5.408;2024-01-07T08:39:31;1.60;99.90
19200;DHT22;9732;52.498;5.408;2024-01-07T08:41:59;1.60;99.90
19200;DHT22;9732;52.498;5.408;2024-01-07T08:44:26;1.60;99.90
19200;DHT22;9732;52.498;5.408;2024-01-07T08:46:52;1.50;99.90
19200;DHT22;9732;52.498;5.408;2024-01-07T08:49:19;1.60;99.90
19200;DHT22;9732;52.498;5.408;2024-01-07T08:51:46;1.60;99.90
19200;DHT22;9732;52.498;5.408;2024-01-07T08:54:12;1.60;99.90
19200;DHT22;9732;52.498;5.408;2024-01-07T08:56:39;1.60;99.90
19200;DHT22;9732;52.498;5.408;2024-01-07T08:59:07;1.60;99.90
19200;DHT22;9732;52.498;5.408;2024-01-07T09:01:34;1.70;99.90
19200;DHT22;9732;52.498;5.408;2024-01-07T09:04:00;1.60;99.90
19200;DHT22;9732;52.498;5.408;2024-01-07T09:06:26;1.70;99.90
19200;DHT22;9732;52.498;5.408;2024-01-07T09:08:53;1.60;99.90
19200;DHT22;9732;52.498;5.408;2024-01-07T09:11:20;1.70;99.90
19200;DHT22;9732;52.498;5.408;2024-01-07T09:13:46;1.70;99.90
19200;DHT22;9732;52.498;5.408;2024-01-07T09:16:17;1.90;99.90
19200;DHT22;9732;52.498;5.408;2024-01-07T09:18:43;1.70;99.90
19200;DHT22;9732;52.498;5.408;2024-01-07T09:21:10;1.70;99.90
19200;DHT22;9732;52.498;5.408;2024-01-07T09:23:37;1.70;99.90
19200;DHT22;9732;52.498;5.408;2024-01-07T09:26:04;1.80;99.90
19200;DHT22;9732;52.498;5.408;2024-01-07T09:28:31;1.80;99.90
19200;DHT22;9732;52.498;5.408;2024-01-07T09:30:58;1.80;99.90
19200;DHT22;9732;52.498;5.408;2024-01-07T09:33:26;1.90;99.90
19200;DHT22;9732;52.498;5.408;2024-01-07T09:35:53;1.90;99.90
19200;DHT22;9732;52.498;5.408;2024-01-07T09:38:20;1.90;99.90
19200;DHT22;9732;52.498;5.408;2024-01-07T09:40:47;1.90;99.90
19200;DHT22;9732;52.498;5.408;2024-01-07T09:43:14;2.00;99.90
19200;DHT22;9732;52.498;5.408;2024-01-07T09:45:44;2.00;99.90
19200;DHT22;9732;52.498;5.408;2024-01-07T09:48:13;2.00;99.90
19200;DHT22;9732;52.498;5.408;2024-01-07T09:50:41;2.00;99.90
19200;DHT22;9732;52.498;5.408;2024-01-07T09:53:11;2.10;99.90
19200;DHT22;9732;52.498;5.408;2024-01-07T09:55:51;2.10;99.90
19200;DHT22;9732;52.498;5.408;2024-01-07T09:58:19;2.10;99.90
19200;DHT22;9732;52.498;5.408;2024-01-07T10:00:46;2.20;99.90
19200;DHT22;9732;52.498;5.408;2024-01-07T10:03:13;2.20;99.90
19200;DHT22;9732;52.498;5.408;2024-01-07T10:05:41;2.30;99.90
19200;DHT22;9732;52.498;5.408;2024-01-07T10:08:08;2.20;99.90
19200;DHT22;9732;52.498;5.408;2024-01-07T10:10:36;2.30;99.90
19200;DHT22;9732;52.498;5.408;2024-01-07T10:13:04;2.20;99.90
19200;DHT22;9732;52.498;5.408;2024-01-07T10:15:31;2.10;99.90
19200;DHT22;9732;52.498;5.408;2024-01-07T10:18:03;2.20;99.90
19200;DHT22;9732;52.498;5.408;2024-01-07T10:20:31;2.00;99.90
19200;DHT22;9732;52.498;5.408;2024-01-07T10:23:00;1.90;99.90
19200;DHT22;9732;52.498;5.408;2024-01-07T10:25:30;1.80;99.90
19200;DHT22;9732;52.498;5.408;2024-01-07T10:27:59;1.80;99.90
19200;DHT22;9732;52.498;5.408;2024-01-07T10:30:27;1.70;99.90
19200;DHT22;9732;52.498;5.408;2024-01-07T10:32:56;1.70;99.90
19200;DHT22;9732;52.498;5.408;2024-01-07T10:35:33;1.60;99.90
19200;DHT22;9732;52.498;5.408;2024-01-07T10:38:03;1.60;99.90
19200;DHT22;9732;52.498;5.408;2024-01-07T10:40:31;1.70;99.90
19200;DHT22;9732;52.498;5.408;2024-01-07T10:42:59;1.60;99.90
19200;DHT22;9732;52.498;5.408;2024-01-07T10:45:27;1.60;99.90
19200;DHT22;9732;52.498;5.408;2024-01-07T10:47:55;1.70;99.90
19200;DHT22;9732;52.498;5.408;2024-01-07T10:50:24;1.70;99.90
19200;DHT22;9732;52.498;5.408;2024-01-07T10:52:58;1.70;99.90
19200;DHT22;9732;52.498;5.408;2024-01-07T10:55:34;1.70;99.90
19200;DHT22;9732;52.498;5.408;2024-01-07T10:58:03;1.70;99.90
19200;DHT22;9732;52.498;5.408;2024-01-07T11:00:31;1.70;99.90
19200;DHT22;9732;52.498;5.408;2024-01-07T11:03:04;1.70;99.90
19200;DHT22;9732;52.498;5.408;2024-01-07T11:05:40;1.70;99.90
19200;DHT22;9732;52.498;5.408;2024-01-07T11:08:15;1.70;99.90
19200;DHT22;9732;52.498;5.408;2024-01-07T11:10:50;1.70;99.90
19200;DHT22;9732;52.498;5.408;2024-01-07T11:13:33;1.70;99.90
19200;DHT22;9732;52.498;5.408;2024-01-07T11:16:01;1.80;99.90
19200;DHT22;9732;52.498;5.408;2024-01-07T11:18:28;1.80;99.90
19200;DHT22;9732;52.498;5.408;2024-01-07T11:20:59;1.80;99.90
19200;DHT22;9732;52.498;5.408;2024-01-07T11:23:28;1.90;99.90
19200;DHT22;9732;52.498;5.408;2024-01-07T11:25:58;1.90;99.90
19200;DHT22;9732;52.498;5.408;2024-01-07T11:28:44;1.90;99.90
19200;DHT22;9732;52.498;5.408;2024-01-07T11:31:11;2.00;99.90
19200;DHT22;9732;52.498;5.408;2024-01-07T11:33:38;2.00;99.90
19200;DHT22;9732;52.498;5.408;2024-01-07T11:36:06;2.00;99.90
19200;DHT22;9732;52.498;5.408;2024-01-07T11:38:34;1.90;99.90
19200;DHT22;9732;52.498;5.408;2024-01-07T11:41:04;2.00;99.90
19200;DHT22;9732;52.498;5.408;2024-01-07T11:43:32;2.00;99.90
19200;DHT22;9732;52.498;5.408;2024-01-07T11:46:00;2.00;99.90
19200;DHT22;9732;52.498;5.408;2024-01-07T11:48:26;2.00;99.90
19200;DHT22;9732;52.498;5.408;2024-01-07T11:50:53;2.20;99.90
19200;DHT22;9732;52.498;5.408;2024-01-07T11:53:20;2.00;99.90
19200;DHT22;9732;52.498;5.408;2024-01-07T11:55:47;2.00;99.90
19200;DHT22;9732;52.498;5.408;2024-01-07T11:58:15;2.00;99.90
19200;DHT22;9732;52.498;5.408;2024-01-07T12:00:42;2.10;99.90
19200;DHT22;9732;52.498;5.408;2024-01-07T12:03:09;2.10;99.90
19200;DHT22;9732;52.498;5.408;2024-01-07T12:05:35;2.10;99.90
19200;DHT22;9732;52.498;5.408;2024-01-07T12:08:02;2.20;99.90
19200;DHT22;9732;52.498;5.408;2024-01-07T12:10:29;2.20;99.90
19200;DHT22;9732;52.498;5.408;2024-01-07T12:12:57;2.20;99.90
19200;DHT22;9732;52.498;5.408;2024-01-07T12:15:26;2.10;99.90
19200;DHT22;9732;52.498;5.408;2024-01-07T12:17:57;2.20;99.90
19200;DHT22;9732;52.498;5.408;2024-01-07T12:20:26;2.10;99.90
19200;DHT22;9732;52.498;5.408;2024-01-07T12:22:57;2.20;99.90
19200;DHT22;9732;52.498;5.408;2024-01-07T12:25:26;2.30;99.90
19200;DHT22;9732;52.498;5.408;2024-01-07T12:27:54;2.40;99.90
19200;DHT22;9732;52.498;5.408;2024-01-07T12:30:25;2.40;99.90
19200;DHT22;9732;52.498;5.408;2024-01-07T12:32:52;2.40;99.90
19200;DHT22;9732;52.498;5.408;2024-01-07T12:35:20;2.40;99.90
19200;DHT22;9732;52.498;5.408;2024-01-07T12:37:49;2.50;99.90
19200;DHT22;9732;52.498;5.408;2024-01-07T12:40:16;2.50;99.90
19200;DHT22;9732;52.498;5.408;2024-01-07T12:42:45;2.50;99.90
19200;DHT22;9732;52.498;5.408;2024-01-07T12:45:13;2.50;99.90
19200;DHT22;9732;52.498;5.408;2024-01-07T12:47:42;2.60;99.90
19200;DHT22;9732;52.498;5.408;2024-01-07T12:50:09;2.70;99.90
19200;DHT22;9732;52.498;5.408;2024-01-07T12:52:36;2.70;99.90
19200;DHT22;9732;52.498;5.408;2024-01-07T12:55:04;2.70;99.90
19200;DHT22;9732;52.498;5.408;2024-01-07T12:57:31;2.70;99.90
19200;DHT22;9732;52.498;5.408;2024-01-07T12:59:58;2.70;99.90
19200;DHT22;9732;52.498;5.408;2024-01-07T13:02:26;2.80;99.90
19200;DHT22;9732;52.498;5.408;2024-01-07T13:04:54;2.80;99.90
19200;DHT22;9732;52.498;5.408;2024-01-07T13:07:21;2.80;99.90
19200;DHT22;9732;52.498;5.408;2024-01-07T13:09:48;2.70;99.90
19200;DHT22;9732;52.498;5.408;2024-01-07T13:12:15;2.60;99.90
19200;DHT22;9732;52.498;5.408;2024-01-07T13:14:42;2.50;99.90
19200;DHT22;9732;52.498;5.408;2024-01-07T13:17:08;2.40;99.90
19200;DHT22;9732;52.498;5.408;2024-01-07T13:19:35;2.40;99.90
19200;DHT22;9732;52.498;5.408;2024-01-07T13:22:04;2.40;99.90
19200;DHT22;9732;52.498;5.408;2024-01-07T13:24:32;2.40;99.90
19200;DHT22;9732;52.498;5.408;2024-01-07T13:26:59;2.30;99.90
19200;DHT22;9732;52.498;5.408;2024-01-07T13:29:26;2.30;99.90
19200;DHT22;9732;52.498;5.408;2024-01-07T13:31:53;2.30;99.90
19200;DHT22;9732;52.498;5.408;2024-01-07T13:34:21;2.40;99.90
19200;DHT22;9732;52.498;5.408;2024-01-07T13:36:49;2.40;99.90
19200;DHT22;9732;52.498;5.408;2024-01-07T13:39:18;2.40;99.90
19200;DHT22;9732;52.498;5.408;2024-01-07T13:41:47;2.50;99.90
19200;DHT22;9732;52.498;5.408;2024-01-07T13:44:14;2.50;99.90
19200;DHT22;9732;52.498;5.408;2024-01-07T13:46:45;2.50;99.90
19200;DHT22;9732;52.498;5.408;2024-01-07T13:49:13;2.40;99.90
19200;DHT22;9732;52.498;5.408;2024-01-07T13:51:41;2.40;99.90
19200;DHT22;9732;52.498;5.408;2024-01-07T13:54:09;2.50;99.90
19200;DHT22;9732;52.498;5.408;2024-01-07T13:56:40;2.50;99.90
19200;DHT22;9732;52.498;5.408;2024-01-07T13:59:08;2.50;99.90
19200;DHT22;9732;52.498;5.408;2024-01-07T14:01:35;2.50;99.90
19200;DHT22;9732;52.498;5.408;2024-01-07T14:04:03;2.50;99.90
19200;DHT22;9732;52.498;5.408;2024-01-07T14:06:32;2.50;99.90
19200;DHT22;9732;52.498;5.408;2024-01-07T14:08:59;2.50;99.90
19200;DHT22;9732;52.498;5.408;2024-01-07T14:11:26;2.50;99.90
19200;DHT22;9732;52.498;5.408;2024-01-07T14:13:56;2.50;99.90
19200;DHT22;9732;52.498;5.408;2024-01-07T14:16:24;2.50;99.90
19200;DHT22;9732;52.498;5.408;2024-01-07T14:18:52;2.50;99.90
19200;DHT22;9732;52.498;5.408;2024-01-07T14:21:19;2.50;99.90
19200;DHT22;9732;52.498;5.408;2024-01-07T14:23:45;2.40;99.90
19200;DHT22;9732;52.498;5.408;2024-01-07T14:26:12;2.50;99.90
19200;DHT22;9732;52.498;5.408;2024-01-07T14:28:40;2.40;99.90
19200;DHT22;9732;52.498;5.408;2024-01-07T14:31:08;2.40;99.90
19200;DHT22;9732;52.498;5.408;2024-01-07T14:33:35;2.40;99.90
19200;DHT22;9732;52.498;5.408;2024-01-07T14:36:02;2.40;99.90
19200;DHT22;9732;52.498;5.408;2024-01-07T14:38:31;2.40;99.90
19200;DHT22;9732;52.498;5.408;2024-01-07T14:40:59;2.30;99.90
19200;DHT22;9732;52.498;5.408;2024-01-07T14:43:25;2.30;99.90
19200;DHT22;9732;52.498;5.408;2024-01-07T14:45:52;2.30;99.90
19200;DHT22;9732;52.498;5.408;2024-01-07T14:48:22;2.20;99.90
19200;DHT22;9732;52.498;5.408;2024-01-07T14:50:50;2.20;99.90
19200;DHT22;9732;52.498;5.408;2024-01-07T14:53:20;2.20;99.90
19200;DHT22;9732;52.498;5.408;2024-01-07T14:55:48;2.20;99.90
19200;DHT22;9732;52.498;5.408;2024-01-07T14:58:15;2.30;99.90
19200;DHT22;9732;52.498;5.408;2024-01-07T15:00:41;2.30;99.90
19200;DHT22;9732;52.498;5.408;2024-01-07T15:03:08;2.30;99.90
19200;DHT22;9732;52.498;5.408;2024-01-07T15:05:38;2.20;99.90
19200;DHT22;9732;52.498;5.408;2024-01-07T15:08:06;2.20;99.90
19200;DHT22;9732;52.498;5.408;2024-01-07T15:10:39;2.20;99.90
19200;DHT22;9732;52.498;5.408;2024-01-07T15:13:08;2.20;99.90
19200;DHT22;9732;52.498;5.408;2024-01-07T15:15:36;2.20;99.90
19200;DHT22;9732;52.498;5.408;2024-01-07T15:18:03;2.10;99.90
19200;DHT22;9732;52.498;5.408;2024-01-07T15:20:30;2.10;99.90
19200;DHT22;9732;52.498;5.408;2024-01-07T15:22:59;2.10;99.90
19200;DHT22;9732;52.498;5.408;2024-01-07T15:25:28;2.10;99.90
19200;DHT22;9732;52.498;5.408;2024-01-07T15:27:55;2.00;99.90
19200;DHT22;9732;52.498;5.408;2024-01-07T15:30:22;2.10;99.90
19200;DHT22;9732;52.498;5.408;2024-01-07T15:32:49;2.00;99.90
19200;DHT22;9732;52.498;5.408;2024-01-07T15:35:17;2.00;99.90
19200;DHT22;9732;52.498;5.408;2024-01-07T15:37:44;2.00;99.90
19200;DHT22;9732;52.498;5.408;2024-01-07T15:40:12;1.90;99.90
19200;DHT22;9732;52.498;5.408;2024-01-07T15:42:40;1.90;99.90
19200;DHT22;9732;52.498;5.408;2024-01-07T15:45:09;1.90;99.90
19200;DHT22;9732;52.498;5.408;2024-01-07T15:47:38;1.90;99.90
19200;DHT22;9732;52.498;5.408;2024-01-07T15:50:07;1.90;99.90
19200;DHT22;9732;52.498;5.408;2024-01-07T15:52:34;1.80;99.90
19200;DHT22;9732;52.498;5.408;2024-01-07T15:55:01;1.80;99.90
19200;DHT22;9732;52.498;5.408;2024-01-07T15:57:29;1.80;99.90
19200;DHT22;9732;52.498;5.408;2024-01-07T15:59:56;1.80;99.90
19200;DHT22;9732;52.498;5.408;2024-01-07T16:02:24;1.70;99.90
19200;DHT22;9732;52.498;5.408;2024-01-07T16:04:53;1.70;99.90